Impacts TAF Board INFO
FOR SITUATIONAL AWARENESS. NOT TO BE USED FOR FLIGHT PLANNING PURPOSES.
IDs:

KSLC - Salt Lake City Intl, UT, US

Issued at 1507 UTC 18 Dec 2017
Updated at 1637 UTC 18 Dec 2017
Potential Impact None Slight Moderate High
Time<<19/17Z 19/18Z 19/19Z 19/20Z 19/21Z 19/22Z 19/23Z 20/00Z 20/01Z 20/02Z 20/03Z 20/04Z 20/05Z
Type PRVL
VIS >6
CIG 200
Cover BKN
FltCat VFR
WX --
WDir 150
WSpd 5
WGst --

Raw TAF
KSLC 181507Z 1815/1918 14006KT P6SM BKN050 BKN200
  FM181700 14006KT P6SM SCT050 BKN200
  FM181900 32006KT P6SM SCT060 BKN200
  FM190300 15005KT P6SM BKN200


METAR Board
Radar Display
Forecast Discussion

FOR SITUATIONAL AWARENESS. NOT TO BE USED FOR FLIGHT PLANNING PURPOSES.